createdAt,value
2022-09-23T00:02:55.928Z,10.76
2022-09-23T00:06:08.342Z,10.74
2022-09-23T00:09:18.556Z,10.69
2022-09-23T00:12:30.043Z,10.61
2022-09-23T00:15:40.862Z,10.59
2022-09-23T00:18:51.228Z,10.59
2022-09-23T00:22:01.429Z,10.58
2022-09-23T00:25:12.726Z,10.55
2022-09-23T00:28:24.523Z,10.53
2022-09-23T00:31:34.928Z,10.52
2022-09-23T00:34:45.663Z,10.50
2022-09-23T00:37:56.133Z,10.44
2022-09-23T00:41:06.594Z,10.46
2022-09-23T00:44:48.539Z,10.45
2022-09-23T00:48:01.328Z,10.48
2022-09-23T00:51:21.701Z,10.48
2022-09-23T00:54:32.204Z,10.48
2022-09-23T00:57:44.980Z,10.48
2022-09-23T01:00:58.670Z,10.45
2022-09-23T01:04:09.871Z,10.42
2022-09-23T01:07:20.199Z,10.37
2022-09-23T01:10:38.242Z,10.33
2022-09-23T01:13:57.013Z,10.29
2022-09-23T01:17:15.361Z,10.24
2022-09-23T01:21:00.680Z,10.18
2022-09-23T01:24:45.283Z,10.14
2022-09-23T01:28:22.330Z,10.13
2022-09-23T01:31:39.258Z,10.09
2022-09-23T01:34:56.054Z,10.11
2022-09-23T01:38:18.657Z,10.09
2022-09-23T01:41:47.147Z,10.06
2022-09-23T01:45:01.409Z,10.05
2022-09-23T01:48:19.167Z,10.09
2022-09-23T01:51:34.701Z,10.12
2022-09-23T01:54:52.172Z,10.15
2022-09-23T01:58:08.680Z,10.10
2022-09-23T02:01:24.401Z,10.10
2022-09-23T02:04:41.102Z,10.08
2022-09-23T02:07:59.797Z,10.07
2022-09-23T02:11:15.059Z,10.10
2022-09-23T02:14:32.221Z,10.09
2022-09-23T02:17:48.489Z,10.04
2022-09-23T02:21:06.782Z,10.04
2022-09-23T02:24:22.194Z,10.03
2022-09-23T02:27:40.470Z,10.03
2022-09-23T02:30:56.188Z,10.02
2022-09-23T02:34:16.280Z,10.03
2022-09-23T02:37:37.454Z,10.03
2022-09-23T02:40:54.237Z,9.96
2022-09-23T02:44:08.628Z,9.97
2022-09-23T02:47:24.093Z,9.98
2022-09-23T02:50:34.971Z,9.93
2022-09-23T02:53:47.651Z,9.89
2022-09-23T02:56:57.846Z,9.89
2022-09-23T03:00:08.765Z,9.85
2022-09-23T03:03:32.411Z,9.86
2022-09-23T03:06:53.452Z,9.86
2022-09-23T03:10:14.821Z,9.84
2022-09-23T03:13:31.653Z,9.82
2022-09-23T03:16:47.727Z,9.79
2022-09-23T03:20:03.652Z,9.75
2022-09-23T03:23:17.507Z,9.77
2022-09-23T03:26:34.333Z,9.77
2022-09-23T03:29:47.375Z,9.79
2022-09-23T03:33:00.211Z,9.82
2022-09-23T03:36:31.041Z,9.82
2022-09-23T03:39:44.188Z,9.85
2022-09-23T03:42:57.404Z,9.88
2022-09-23T03:46:09.069Z,9.90
2022-09-23T03:49:27.227Z,9.93
2022-09-23T03:52:39.675Z,9.92
2022-09-23T03:55:49.604Z,9.96
2022-09-23T03:59:01.069Z,9.98
2022-09-23T04:02:11.803Z,9.98
2022-09-23T04:05:22.078Z,9.96
2022-09-23T04:08:32.271Z,9.97
2022-09-23T04:11:42.540Z,9.95
2022-09-23T04:14:53.829Z,9.97
2022-09-23T04:18:04.085Z,9.98
2022-09-23T04:21:14.370Z,10.03
2022-09-23T04:24:24.460Z,10.05
2022-09-23T04:27:37.763Z,10.01
2022-09-23T04:30:49.961Z,10.01
2022-09-23T04:34:00.721Z,10.02
2022-09-23T04:37:10.963Z,10.04
2022-09-23T04:40:21.015Z,10.00
2022-09-23T04:43:31.125Z,10.03
2022-09-23T04:46:43.683Z,10.08
2022-09-23T04:49:58.999Z,10.12
2022-09-23T04:53:09.581Z,10.11
2022-09-23T04:56:20.973Z,10.09
2022-09-23T04:59:31.204Z,10.07
2022-09-23T05:02:45.423Z,10.04
2022-09-23T05:05:59.907Z,10.04
2022-09-23T05:09:14.924Z,10.06
2022-09-23T05:12:25.022Z,10.11
2022-09-23T05:15:34.832Z,10.10
2022-09-23T05:18:47.815Z,10.07
2022-09-23T05:21:58.144Z,10.10
2022-09-23T05:25:08.717Z,10.10
2022-09-23T05:28:20.098Z,10.10
2022-09-23T05:31:32.081Z,10.13
2022-09-23T05:34:43.911Z,10.13
2022-09-23T05:37:54.427Z,10.24
2022-09-23T05:41:07.138Z,10.26
2022-09-23T05:44:17.562Z,10.29
2022-09-23T05:47:27.483Z,10.33
2022-09-23T05:50:39.085Z,10.36
2022-09-23T05:53:52.535Z,10.40
2022-09-23T05:57:04.967Z,10.45
2022-09-23T06:00:16.563Z,10.49
2022-09-23T06:03:27.181Z,10.53
2022-09-23T06:06:41.306Z,10.60
2022-09-23T06:09:51.557Z,10.67
2022-09-23T06:13:01.697Z,10.68
2022-09-23T06:16:13.937Z,10.66
2022-09-23T06:19:24.211Z,10.64
2022-09-23T06:22:38.556Z,10.70
2022-09-23T06:25:50.029Z,10.75
2022-09-23T06:29:01.059Z,10.83
2022-09-23T06:32:11.325Z,10.85
2022-09-23T06:35:27.423Z,10.81
2022-09-23T06:38:41.898Z,10.87
2022-09-23T06:41:52.232Z,10.92
2022-09-23T06:45:02.777Z,10.91
2022-09-23T06:48:12.834Z,10.89
2022-09-23T06:51:23.118Z,10.93
2022-09-23T06:54:34.611Z,10.91
2022-09-23T06:57:44.739Z,10.86
2022-09-23T07:00:55.276Z,10.95
2022-09-23T07:04:07.671Z,10.97
2022-09-23T07:07:18.596Z,11.08
2022-09-23T07:10:31.087Z,11.08
2022-09-23T07:13:42.659Z,11.16
2022-09-23T07:16:53.843Z,11.27
2022-09-23T07:20:05.009Z,11.46
2022-09-23T07:23:17.528Z,11.53
2022-09-23T07:26:29.505Z,11.65
2022-09-23T07:29:47.777Z,11.85
2022-09-23T07:32:59.493Z,12.61
2022-09-23T07:36:12.236Z,13.58
2022-09-23T07:39:22.773Z,14.32
2022-09-23T07:42:34.551Z,15.18
2022-09-23T07:45:45.431Z,17.42
2022-09-23T07:48:56.280Z,17.11
2022-09-23T07:52:06.690Z,17.69
2022-09-23T07:55:20.959Z,16.35
2022-09-23T07:58:33.514Z,14.85
2022-09-23T08:01:46.093Z,14.05
2022-09-23T08:04:56.334Z,13.75
2022-09-23T08:08:07.181Z,13.65
2022-09-23T08:11:17.977Z,13.62
2022-09-23T08:14:29.940Z,13.58
2022-09-23T08:17:40.410Z,13.69
2022-09-23T08:20:50.436Z,13.74
2022-09-23T08:24:00.749Z,13.82
2022-09-23T08:27:12.598Z,13.89
2022-09-23T08:30:23.957Z,13.96
2022-09-23T08:33:34.015Z,13.90
2022-09-23T08:36:44.351Z,13.94
2022-09-23T08:39:54.428Z,14.00
2022-09-23T08:43:07.998Z,14.10
2022-09-23T08:46:25.970Z,14.20
2022-09-23T08:49:39.911Z,14.15
2022-09-23T08:52:53.738Z,14.36
2022-09-23T08:56:08.173Z,14.52
2022-09-23T08:59:26.762Z,14.56
2022-09-23T09:02:38.317Z,14.79
2022-09-23T09:05:54.195Z,14.82
2022-09-23T09:09:07.770Z,14.87
2022-09-23T09:12:21.658Z,15.08
2022-09-23T09:15:33.032Z,15.36
2022-09-23T09:18:52.656Z,15.40
2022-09-23T09:22:09.329Z,15.40
2022-09-23T09:25:25.716Z,15.53
2022-09-23T09:28:41.773Z,15.57
2022-09-23T09:31:52.191Z,15.60
2022-09-23T09:35:13.680Z,15.74
2022-09-23T09:38:24.118Z,15.87
2022-09-23T09:41:34.776Z,15.80
2022-09-23T09:44:52.759Z,15.83
2022-09-23T09:48:11.735Z,16.02
2022-09-23T09:51:24.023Z,16.20
2022-09-23T09:54:34.633Z,16.17
2022-09-23T09:57:48.022Z,16.48
2022-09-23T10:00:58.929Z,16.57
2022-09-23T10:04:25.044Z,16.65
2022-09-23T10:07:36.888Z,16.74
2022-09-23T10:10:54.571Z,16.99
2022-09-23T10:14:10.960Z,17.09
2022-09-23T10:17:23.095Z,17.17
2022-09-23T10:20:36.322Z,17.24
2022-09-23T10:23:52.539Z,17.44
2022-09-23T10:27:07.651Z,17.47
2022-09-23T10:30:23.671Z,17.34
2022-09-23T10:33:34.114Z,17.38
2022-09-23T10:36:55.005Z,17.33
2022-09-23T10:40:35.157Z,17.47
2022-09-23T10:44:16.715Z,17.44
2022-09-23T10:47:37.203Z,17.60
2022-09-23T10:50:50.426Z,17.59
2022-09-23T10:54:11.509Z,17.66
2022-09-23T10:57:40.473Z,17.70
2022-09-23T11:01:03.406Z,17.72
2022-09-23T11:04:39.230Z,17.86
2022-09-23T11:08:03.068Z,17.94
2022-09-23T11:11:29.829Z,17.99
2022-09-23T11:14:55.050Z,18.07
2022-09-23T11:18:38.984Z,18.12
2022-09-23T11:22:02.575Z,18.22
2022-09-23T11:25:24.120Z,18.25
2022-09-23T11:28:51.058Z,18.34
2022-09-23T11:32:17.327Z,18.39
2022-09-23T11:35:32.251Z,18.46
2022-09-23T11:38:47.396Z,18.36
2022-09-23T11:42:01.310Z,18.41
2022-09-23T11:45:19.139Z,18.44
2022-09-23T11:48:37.131Z,18.29
2022-09-23T11:52:03.999Z,18.28
2022-09-23T11:55:22.525Z,18.27
2022-09-23T12:02:09.868Z,18.19
2022-09-23T12:05:32.914Z,18.13
2022-09-23T12:08:53.631Z,18.21
2022-09-23T12:12:12.214Z,18.26
2022-09-23T12:15:29.958Z,18.28
2022-09-23T12:18:52.604Z,18.32
2022-09-23T12:22:20.645Z,18.32
2022-09-23T12:25:39.703Z,18.39
2022-09-23T12:28:52.992Z,18.33
2022-09-23T12:32:05.440Z,18.36
2022-09-23T12:35:24.756Z,18.39
2022-09-23T12:38:39.124Z,18.31
2022-09-23T12:41:55.055Z,18.52
2022-09-23T12:45:34.999Z,18.50
2022-09-23T12:49:00.440Z,18.45
2022-09-23T12:52:25.848Z,18.61
2022-09-23T12:55:51.692Z,18.65
2022-09-23T12:59:12.118Z,18.61
2022-09-23T13:02:29.923Z,18.60
2022-09-23T13:06:04.411Z,18.59
2022-09-23T13:09:21.080Z,18.68
2022-09-23T13:12:38.278Z,18.63
2022-09-23T13:15:49.790Z,18.59
2022-09-23T13:19:01.191Z,18.61
2022-09-23T13:22:12.082Z,18.70
2022-09-23T13:25:25.404Z,18.67
2022-09-23T13:28:54.626Z,18.80
2022-09-23T13:32:06.294Z,18.76
2022-09-23T13:35:23.768Z,18.76
2022-09-23T13:38:33.950Z,18.75
2022-09-23T13:41:46.276Z,18.77
2022-09-23T13:45:00.443Z,18.75
2022-09-23T13:48:15.337Z,18.70
2022-09-23T13:51:29.338Z,18.60
2022-09-23T13:54:49.238Z,18.54
2022-09-23T13:58:04.269Z,18.48
2022-09-23T14:01:23.702Z,18.48
2022-09-23T14:04:33.755Z,18.54
2022-09-23T14:07:43.687Z,18.58
2022-09-23T14:10:55.271Z,18.55
2022-09-23T14:14:07.111Z,18.50
2022-09-23T14:17:22.933Z,18.50
2022-09-23T14:20:34.281Z,18.48
2022-09-23T14:23:45.870Z,18.47
2022-09-23T14:26:59.821Z,18.50
2022-09-23T14:30:16.161Z,18.49
2022-09-23T14:33:31.475Z,18.42
2022-09-23T14:36:59.231Z,18.50
2022-09-23T14:40:14.781Z,18.39
2022-09-23T14:43:28.059Z,18.39
2022-09-23T14:46:40.043Z,18.35
2022-09-23T14:50:06.300Z,18.33
2022-09-23T14:53:38.731Z,18.28
2022-09-23T14:56:48.810Z,18.24
2022-09-23T15:00:02.339Z,18.22
2022-09-23T15:03:17.387Z,18.18
2022-09-23T15:06:29.188Z,18.16
2022-09-23T15:09:41.676Z,18.13
2022-09-23T15:12:53.489Z,18.15
2022-09-23T15:16:05.547Z,18.17
2022-09-23T15:19:20.133Z,18.13
2022-09-23T15:22:32.130Z,18.12
2022-09-23T15:25:42.374Z,18.13
2022-09-23T15:28:55.396Z,18.06
2022-09-23T15:32:08.458Z,18.08
2022-09-23T15:35:20.977Z,18.08
2022-09-23T15:38:32.826Z,18.00
2022-09-23T15:41:43.502Z,17.95
2022-09-23T15:44:53.591Z,17.97
2022-09-23T15:48:08.825Z,17.91
2022-09-23T15:51:19.538Z,17.84
2022-09-23T15:54:33.734Z,17.80
2022-09-23T15:57:44.003Z,17.79
2022-09-23T16:00:56.769Z,17.78
2022-09-23T16:04:07.210Z,17.83
2022-09-23T16:07:17.683Z,17.79
2022-09-23T16:10:30.316Z,17.74
2022-09-23T16:13:40.498Z,17.67
2022-09-23T16:16:50.861Z,17.69
2022-09-23T16:20:00.796Z,17.63
2022-09-23T16:23:34.125Z,17.59
2022-09-23T16:26:48.572Z,17.57
2022-09-23T16:29:58.977Z,17.60
2022-09-23T16:33:08.836Z,17.53
2022-09-23T16:36:24.085Z,17.49
2022-09-23T16:39:34.216Z,17.46
2022-09-23T16:42:46.500Z,17.46
2022-09-23T16:45:57.711Z,17.44
2022-09-23T16:49:08.841Z,17.37
2022-09-23T16:52:19.158Z,17.35
2022-09-23T16:55:29.274Z,17.33
2022-09-23T16:58:41.333Z,17.25
2022-09-23T17:02:09.216Z,17.22
2022-09-23T17:05:19.469Z,17.13
2022-09-23T17:08:29.967Z,17.05
2022-09-23T17:11:40.365Z,17.02
2022-09-23T17:14:52.426Z,16.93
2022-09-23T17:18:02.816Z,16.82
2022-09-23T17:21:13.135Z,16.77
2022-09-23T17:24:23.560Z,16.66
2022-09-23T17:27:33.708Z,16.54
2022-09-23T17:30:45.375Z,16.43
2022-09-23T17:33:55.510Z,16.38
2022-09-23T17:37:05.592Z,16.41
2022-09-23T17:40:15.855Z,16.38
2022-09-23T17:43:25.927Z,16.29
2022-09-23T17:46:37.964Z,16.18
2022-09-23T17:49:49.904Z,16.12
2022-09-23T17:53:00.870Z,16.08
2022-09-23T17:56:14.729Z,16.03
2022-09-23T17:59:24.984Z,15.97
2022-09-23T18:02:36.626Z,15.93
2022-09-23T18:05:47.144Z,15.91
2022-09-23T18:08:57.245Z,15.86
2022-09-23T18:12:08.511Z,15.80
2022-09-23T18:15:20.175Z,15.75
2022-09-23T18:18:31.983Z,15.70
2022-09-23T18:21:44.206Z,15.67
2022-09-23T18:24:54.568Z,15.65
2022-09-23T18:28:05.199Z,15.64
2022-09-23T18:31:16.374Z,15.62
2022-09-23T18:34:28.699Z,15.59
2022-09-23T18:37:38.876Z,15.58
2022-09-23T18:40:55.414Z,15.57
2022-09-23T18:44:06.119Z,15.55
2022-09-23T18:47:36.397Z,15.54
2022-09-23T18:50:48.902Z,15.53
2022-09-23T18:54:01.152Z,15.52
2022-09-23T18:57:14.563Z,15.53
2022-09-23T19:00:24.992Z,15.53
2022-09-23T19:03:35.516Z,15.52
2022-09-23T19:06:47.344Z,15.52
2022-09-23T19:09:57.788Z,15.54
2022-09-23T19:13:08.054Z,15.55
2022-09-23T19:16:18.362Z,15.54
2022-09-23T19:19:28.825Z,15.50
2022-09-23T19:22:40.775Z,15.46
2022-09-23T19:25:51.132Z,15.44
2022-09-23T19:29:03.213Z,15.51
2022-09-23T19:32:15.823Z,15.57
2022-09-23T19:35:26.073Z,15.56
2022-09-23T19:38:38.372Z,15.55
2022-09-23T19:41:48.851Z,15.51
2022-09-23T19:44:59.305Z,15.48
2022-09-23T19:48:09.577Z,15.43
2022-09-23T19:51:19.823Z,15.39
2022-09-23T19:54:31.186Z,15.37
2022-09-23T19:57:41.444Z,15.35
2022-09-23T20:00:51.768Z,15.31
2022-09-23T20:04:02.102Z,15.31
2022-09-23T20:07:12.254Z,15.28
2022-09-23T20:10:23.817Z,15.31
2022-09-23T20:13:34.140Z,15.29
2022-09-23T20:16:45.541Z,15.28
2022-09-23T20:19:56.125Z,15.24
2022-09-23T20:23:06.583Z,15.25
2022-09-23T20:26:35.426Z,15.26
2022-09-23T20:29:45.890Z,15.28
2022-09-23T20:32:55.933Z,15.29
2022-09-23T20:36:06.350Z,15.27
2022-09-23T20:39:16.536Z,15.16
2022-09-23T20:42:28.113Z,15.12
2022-09-23T20:45:38.220Z,15.07
2022-09-23T20:48:48.331Z,15.03
2022-09-23T20:51:58.498Z,14.97
2022-09-23T20:55:09.420Z,14.96
2022-09-23T20:58:26.924Z,14.94
2022-09-23T21:01:37.113Z,14.94
2022-09-23T21:04:47.183Z,14.95
2022-09-23T21:08:02.138Z,14.92
2022-09-23T21:11:15.809Z,14.93
2022-09-23T21:14:27.215Z,14.91
2022-09-23T21:17:37.411Z,14.85
2022-09-23T21:20:55.138Z,14.82
2022-09-23T21:24:38.799Z,14.74
2022-09-23T21:27:37.154Z,14.71
2022-09-23T21:30:51.933Z,14.66
2022-09-23T21:34:04.279Z,14.68
2022-09-23T21:37:14.610Z,14.64
2022-09-23T21:40:42.178Z,14.61
2022-09-23T21:43:52.541Z,14.63
2022-09-23T21:47:04.236Z,14.64
2022-09-23T21:50:14.373Z,14.63
2022-09-23T21:53:24.744Z,14.59
2022-09-23T21:56:37.724Z,14.54
2022-09-23T21:59:48.034Z,14.51
2022-09-23T22:02:59.918Z,14.52
2022-09-23T22:06:12.203Z,14.48
2022-09-23T22:09:22.581Z,14.42
2022-09-23T22:12:33.080Z,14.38
2022-09-23T22:15:43.770Z,14.35
2022-09-23T22:18:55.524Z,14.36
2022-09-23T22:22:09.735Z,14.37
2022-09-23T22:25:20.366Z,14.37
2022-09-23T22:28:47.963Z,14.35
2022-09-23T22:32:15.588Z,14.34
2022-09-23T22:35:27.392Z,14.37
2022-09-23T22:38:38.670Z,14.36
2022-09-23T22:41:50.634Z,14.35
2022-09-23T22:45:00.739Z,14.31
2022-09-23T22:48:10.936Z,14.26
2022-09-23T22:51:22.984Z,14.19
2022-09-23T22:54:34.225Z,14.14
2022-09-23T22:57:44.379Z,14.15
2022-09-23T23:00:57.053Z,14.16
2022-09-23T23:04:08.302Z,14.17
2022-09-23T23:07:21.641Z,14.15
2022-09-23T23:10:31.781Z,14.12
2022-09-23T23:13:42.473Z,14.11
2022-09-23T23:16:53.557Z,14.10
2022-09-23T23:20:03.789Z,14.06
2022-09-23T23:23:15.058Z,14.02
2022-09-23T23:26:27.257Z,13.99
2022-09-23T23:29:37.320Z,13.93
2022-09-23T23:32:47.446Z,13.88
2022-09-23T23:35:57.680Z,13.89
2022-09-23T23:39:09.444Z,13.91
2022-09-23T23:42:20.127Z,13.87
2022-09-23T23:45:30.309Z,13.86
2022-09-23T23:48:41.765Z,13.87
2022-09-23T23:51:52.094Z,13.93
2022-09-23T23:55:05.189Z,13.88
2022-09-23T23:58:16.022Z,13.83
